Time;durP1;ratioP1;P1;durP2;ratioP2;P2;SDS_P1;SDS_P2;PMS_P1;PMS_P2;Temp;Humidity;BMP_temperature;BMP_pressure;BME280_temperature;BME280_humidity;BME280_pressure;Samples;Min_cycle;Max_cycle;Signal;HPM_P1;HPM_P2
2022/07/21 00:01:31;;;;;;;26.43;16.00;;;20.20;99.90;;;;;;5087882;28;20722;-53
2022/07/21 00:03:56;;;;;;;21.67;15.40;;;20.20;99.90;;;;;;5072190;28;20376;-58
2022/07/21 00:06:22;;;;;;;24.05;15.23;;;20.20;99.90;;;;;;5071187;28;20418;-54
2022/07/21 00:08:47;;;;;;;21.10;14.50;;;20.30;99.90;;;;;;5071956;28;20372;-56
2022/07/21 00:11:13;;;;;;;24.40;15.60;;;20.40;99.90;;;;;;5071879;28;20920;-61
2022/07/21 00:13:39;;;;;;;21.97;15.13;;;20.40;99.90;;;;;;5071740;28;20412;-54
2022/07/21 00:16:05;;;;;;;20.83;14.50;;;20.40;99.90;;;;;;5075583;28;20899;-54
2022/07/21 00:18:31;;;;;;;22.20;15.15;;;20.50;99.90;;;;;;5089987;28;20402;-53
2022/07/21 00:20:57;;;;;;;22.17;15.93;;;20.50;99.90;;;;;;5091720;28;20398;-54
2022/07/21 00:23:24;;;;;;;20.00;14.33;;;20.50;99.90;;;;;;5090862;28;21235;-53
2022/07/21 00:25:50;;;;;;;21.25;14.73;;;20.50;99.90;;;;;;5091600;28;20414;-53
2022/07/21 00:28:17;;;;;;;23.45;14.90;;;20.40;99.90;;;;;;5080769;28;20416;-61
2022/07/21 00:30:42;;;;;;;21.30;14.23;;;20.50;99.90;;;;;;5071443;28;20868;-53
2022/07/21 00:33:08;;;;;;;22.33;15.05;;;20.40;99.90;;;;;;5073265;28;20449;-54
2022/07/21 00:35:34;;;;;;;22.90;15.20;;;20.30;99.90;;;;;;5075004;28;20886;-54
2022/07/21 00:37:59;;;;;;;25.83;15.40;;;20.30;99.90;;;;;;5089384;28;20391;-55
2022/07/21 00:40:25;;;;;;;20.70;15.10;;;20.30;99.90;;;;;;5070640;28;20387;-53
2022/07/21 00:42:51;;;;;;;20.92;14.00;;;20.30;99.90;;;;;;5071183;28;20395;-53
2022/07/21 00:45:17;;;;;;;23.47;15.27;;;20.30;99.90;;;;;;5070386;28;20807;-61
2022/07/21 00:47:43;;;;;;;24.98;14.70;;;20.30;99.90;;;;;;5079074;28;20429;-55
2022/07/21 00:50:14;;;;;;;22.60;15.00;;;20.40;99.90;;;;;;5089578;28;20390;-53
2022/07/21 00:52:40;;;;;;;21.95;15.10;;;20.40;99.90;;;;;;5073536;28;20390;-53
2022/07/21 00:55:09;;;;;;;23.13;14.60;;;20.40;99.90;;;;;;5090726;28;20956;-54
2022/07/21 00:57:35;;;;;;;24.02;16.00;;;20.60;99.90;;;;;;5088368;28;21023;-55
2022/07/21 01:00:03;;;;;;;22.40;14.70;;;20.70;99.90;;;;;;5088985;28;20891;-54
2022/07/21 01:02:31;;;;;;;26.98;15.70;;;20.80;99.90;;;;;;5089569;28;20405;-57
2022/07/21 01:04:57;;;;;;;19.95;14.32;;;20.80;99.90;;;;;;5074706;28;20426;-55
2022/07/21 01:07:23;;;;;;;20.00;14.63;;;20.90;99.90;;;;;;5079050;28;20493;-54
2022/07/21 01:09:49;;;;;;;21.40;14.90;;;20.90;99.90;;;;;;5081323;28;20391;-55
2022/07/21 01:12:15;;;;;;;23.33;15.32;;;20.90;99.90;;;;;;5087366;28;20378;-61
2022/07/21 01:14:40;;;;;;;21.63;13.87;;;20.80;99.90;;;;;;5070312;28;20390;-55
2022/07/21 01:17:06;;;;;;;24.53;14.50;;;20.80;99.90;;;;;;5073202;28;20391;-58
2022/07/21 01:19:32;;;;;;;21.92;14.75;;;20.90;99.90;;;;;;5078403;28;20380;-54
2022/07/21 01:21:58;;;;;;;20.23;14.18;;;20.90;99.90;;;;;;5070575;28;20433;-53
2022/07/21 01:24:23;;;;;;;20.55;14.18;;;20.80;99.90;;;;;;5069764;28;20411;-54
2022/07/21 01:26:50;;;;;;;22.15;14.73;;;20.80;99.90;;;;;;5069801;28;20457;-53
2022/07/21 01:29:17;;;;;;;21.83;15.23;;;20.80;99.90;;;;;;5069861;28;20416;-62
2022/07/21 01:31:45;;;;;;;25.38;14.82;;;20.90;99.90;;;;;;5086516;28;20877;-55
2022/07/21 01:34:11;;;;;;;23.38;14.80;;;20.90;99.90;;;;;;5081629;28;20849;-54
2022/07/21 01:36:38;;;;;;;23.67;15.25;;;20.80;99.90;;;;;;5069450;28;20379;-53
2022/07/21 01:41:50;;;;;;;22.63;15.13;;;20.80;99.90;;;;;;5082456;28;20389;-56
2022/07/21 01:44:16;;;;;;;26.00;15.98;;;20.40;99.90;;;;;;5077728;28;20391;-62
2022/07/21 01:46:45;;;;;;;23.77;14.97;;;20.30;99.90;;;;;;5070214;28;20419;-58
2022/07/21 01:49:12;;;;;;;24.42;15.57;;;20.30;99.90;;;;;;5081735;28;20476;-58
2022/07/21 01:51:37;;;;;;;22.67;15.70;;;20.30;99.90;;;;;;5081174;28;20650;-56
2022/07/21 01:54:04;;;;;;;22.33;15.77;;;20.20;99.90;;;;;;5088346;28;20889;-54
2022/07/21 01:56:30;;;;;;;24.45;15.82;;;21.30;99.90;;;;;;5086586;28;20475;-54
2022/07/21 01:58:57;;;;;;;24.63;16.03;;;20.20;99.90;;;;;;5080263;28;20397;-54
2022/07/21 02:01:26;;;;;;;23.50;15.23;;;20.20;99.90;;;;;;5087508;28;20385;-57
2022/07/21 02:03:52;;;;;;;23.00;15.48;;;20.20;99.90;;;;;;5088151;28;20397;-56
2022/07/21 02:06:18;;;;;;;23.60;15.27;;;20.10;99.90;;;;;;5083239;28;21094;-63
2022/07/21 02:08:44;;;;;;;22.88;15.82;;;20.10;99.90;;;;;;5085969;28;20408;-53
2022/07/21 02:11:11;;;;;;;23.60;16.48;;;20.10;99.90;;;;;;5074163;28;20837;-53
2022/07/21 02:13:37;;;;;;;24.80;16.88;;;20.20;99.90;;;;;;5076227;28;20386;-54
2022/07/21 02:16:03;;;;;;;25.55;16.67;;;20.30;99.90;;;;;;5088846;28;20802;-55
2022/07/21 02:18:29;;;;;;;22.55;15.55;;;20.40;99.90;;;;;;5088611;28;20398;-55
2022/07/21 02:20:54;;;;;;;22.90;15.07;;;20.40;99.90;;;;;;5075193;28;20453;-54
2022/07/21 02:23:22;;;;;;;23.57;16.70;;;20.40;99.90;;;;;;5070797;28;20418;-55
2022/07/21 02:25:48;;;;;;;26.10;15.55;;;20.50;99.90;;;;;;5079391;28;20416;-54
2022/07/21 02:28:14;;;;;;;22.98;14.57;;;20.60;99.90;;;;;;5087351;28;20414;-54
2022/07/21 02:30:40;;;;;;;20.80;14.20;;;20.60;99.90;;;;;;5075637;28;20765;-54
2022/07/21 02:33:06;;;;;;;20.75;14.18;;;20.70;99.90;;;;;;5072843;28;20384;-54
2022/07/21 02:35:32;;;;;;;20.45;13.30;;;20.70;99.90;;;;;;5088897;28;20405;-54
2022/07/21 02:37:58;;;;;;;22.88;14.98;;;20.80;99.90;;;;;;5075457;28;20467;-53
2022/07/21 02:40:24;;;;;;;21.65;14.02;;;20.80;99.90;;;;;;5074673;28;20770;-54
2022/07/21 02:42:49;;;;;;;21.08;13.95;;;20.80;99.90;;;;;;5083594;28;20396;-54
2022/07/21 02:45:15;;;;;;;22.53;13.77;;;20.90;99.90;;;;;;5068106;28;20392;-54
2022/07/21 02:47:55;;;;;;;20.63;13.40;;;20.80;99.90;;;;;;5074473;28;20439;-54
2022/07/21 02:50:23;;;;;;;18.80;13.60;;;20.90;99.90;;;;;;5085446;28;20395;-58
2022/07/21 02:52:49;;;;;;;21.60;13.48;;;20.90;99.90;;;;;;5089391;28;20392;-54
2022/07/21 02:55:15;;;;;;;21.00;13.80;;;20.90;99.90;;;;;;5074314;28;20414;-54
2022/07/21 02:57:41;;;;;;;20.20;14.33;;;20.90;99.90;;;;;;5082631;28;20407;-56
2022/07/21 03:00:09;;;;;;;20.52;14.13;;;20.90;99.90;;;;;;5069180;28;20402;-54
2022/07/21 03:02:35;;;;;;;22.33;14.30;;;20.90;99.90;;;;;;5069509;28;20396;-54
2022/07/21 03:05:01;;;;;;;24.45;14.50;;;20.90;99.90;;;;;;5079395;28;20388;-57
2022/07/21 03:07:26;;;;;;;23.85;14.52;;;20.80;99.90;;;;;;5077408;28;20422;-54
2022/07/21 03:09:52;;;;;;;19.90;14.20;;;20.80;99.90;;;;;;5070031;28;20871;-55
2022/07/21 03:12:18;;;;;;;22.43;14.40;;;20.90;99.90;;;;;;5088268;28;20386;-59
2022/07/21 03:14:43;;;;;;;20.50;14.63;;;21.00;99.90;;;;;;5081059;28;20391;-54
2022/07/21 03:17:09;;;;;;;22.25;14.98;;;21.20;99.90;;;;;;5080455;28;20754;-56
2022/07/21 03:19:35;;;;;;;22.42;14.75;;;21.20;99.90;;;;;;5076004;28;20445;-55
2022/07/21 03:22:00;;;;;;;22.83;15.43;;;21.20;99.90;;;;;;5075421;28;20432;-54
2022/07/21 03:24:26;;;;;;;21.63;14.70;;;21.30;99.90;;;;;;5090733;28;20390;-54
2022/07/21 03:26:52;;;;;;;22.10;14.20;;;21.20;99.90;;;;;;5077670;28;20412;-54
2022/07/21 03:29:17;;;;;;;21.92;15.50;;;21.20;99.90;;;;;;5084485;28;20464;-60
2022/07/21 03:31:43;;;;;;;23.08;14.85;;;21.20;99.90;;;;;;5082221;28;20425;-54
2022/07/21 03:34:09;;;;;;;20.73;14.38;;;21.10;99.90;;;;;;5082631;28;20471;-55
2022/07/21 03:36:34;;;;;;;25.20;15.00;;;21.00;99.90;;;;;;5080531;28;20450;-55
2022/07/21 03:39:00;;;;;;;23.85;15.75;;;21.10;99.90;;;;;;5081895;28;20491;-55
2022/07/21 03:41:26;;;;;;;22.00;14.68;;;21.10;99.90;;;;;;5081698;28;20402;-53
2022/07/21 03:43:51;;;;;;;23.33;14.95;;;21.00;99.90;;;;;;5078510;28;20438;-54
2022/07/21 03:46:17;;;;;;;22.27;15.10;;;21.00;99.90;;;;;;5082465;28;20548;-59
2022/07/21 03:48:43;;;;;;;24.37;15.17;;;21.00;99.90;;;;;;5082217;28;20389;-54
2022/07/21 03:51:09;;;;;;;24.73;15.20;;;21.00;99.90;;;;;;5080376;28;20388;-54
2022/07/21 03:53:35;;;;;;;22.58;14.63;;;20.70;99.90;;;;;;5081467;28;20525;-54
2022/07/21 03:56:00;;;;;;;22.67;15.27;;;20.90;99.90;;;;;;5082167;28;20478;-54
2022/07/21 03:58:27;;;;;;;24.50;15.48;;;21.00;99.90;;;;;;5079319;28;20744;-54
2022/07/21 04:00:53;;;;;;;22.40;15.50;;;21.00;99.90;;;;;;5081328;28;20456;-54
2022/07/21 04:03:19;;;;;;;22.55;15.35;;;21.00;99.90;;;;;;5081229;28;20392;-59
2022/07/21 04:05:44;;;;;;;19.10;13.70;;;21.00;99.90;;;;;;5079708;28;20411;-55
2022/07/21 04:08:12;;;;;;;25.45;15.60;;;21.00;99.90;;;;;;5082538;28;20478;-55
2022/07/21 04:10:38;;;;;;;23.35;15.18;;;21.00;99.90;;;;;;5080947;28;20387;-54
2022/07/21 04:13:07;;;;;;;22.33;15.70;;;20.90;99.90;;;;;;5083416;28;20386;-55
2022/07/21 04:15:33;;;;;;;21.73;14.93;;;21.00;99.90;;;;;;5080343;28;20383;-54
2022/07/21 04:17:59;;;;;;;21.60;14.57;;;21.70;99.90;;;;;;5082877;28;20384;-53
2022/07/21 04:20:24;;;;;;;22.33;14.18;;;20.90;99.90;;;;;;5078187;28;20871;-54
2022/07/21 04:22:51;;;;;;;22.63;14.82;;;20.80;99.90;;;;;;5080649;28;20445;-54
2022/07/21 04:25:18;;;;;;;21.70;14.68;;;20.80;99.90;;;;;;5081491;28;20473;-54
2022/07/21 04:27:45;;;;;;;23.60;14.43;;;20.80;99.90;;;;;;5079533;28;20437;-55
2022/07/21 04:30:14;;;;;;;20.58;14.75;;;20.80;99.90;;;;;;5081382;28;20390;-54
2022/07/21 04:32:39;;;;;;;21.43;13.67;;;20.70;99.90;;;;;;5079531;28;20382;-53
2022/07/21 04:35:06;;;;;;;23.08;14.73;;;20.70;99.90;;;;;;5080501;28;20402;-55
2022/07/21 04:37:32;;;;;;;23.33;14.80;;;20.60;99.90;;;;;;5080844;28;20391;-54
2022/07/21 04:39:58;;;;;;;21.20;14.30;;;20.60;99.90;;;;;;5082311;28;20447;-54
2022/07/21 04:42:23;;;;;;;19.40;13.90;;;20.70;99.90;;;;;;5080173;28;20930;-56
2022/07/21 04:44:49;;;;;;;20.35;13.65;;;20.70;99.90;;;;;;5079639;28;20382;-54
2022/07/21 04:47:15;;;;;;;23.63;14.50;;;20.70;99.90;;;;;;5079658;28;20811;-54
2022/07/21 04:49:40;;;;;;;19.20;13.55;;;20.80;99.90;;;;;;5078991;28;20391;-54
2022/07/21 04:52:06;;;;;;;19.00;13.70;;;20.80;99.90;;;;;;5080693;28;20851;-55
2022/07/21 04:54:32;;;;;;;20.80;13.70;;;20.80;99.90;;;;;;5079138;28;20390;-54
2022/07/21 04:56:59;;;;;;;20.50;14.65;;;20.80;99.90;;;;;;5080426;28;20445;-56
2022/07/21 04:59:24;;;;;;;19.33;13.00;;;20.90;99.90;;;;;;5078195;28;20396;-54
2022/07/21 05:01:50;;;;;;;20.40;13.53;;;20.90;99.90;;;;;;5079236;28;20465;-54
2022/07/21 05:04:16;;;;;;;17.45;13.10;;;21.20;99.90;;;;;;5079075;28;20404;-52
2022/07/21 05:06:41;;;;;;;20.13;12.70;;;21.70;99.90;;;;;;5079206;28;20408;-52
2022/07/21 05:09:07;;;;;;;17.42;12.38;;;22.50;99.90;;;;;;5079711;28;20885;-56
2022/07/21 05:11:33;;;;;;;21.60;12.43;;;23.00;1.00;;;;;;5080089;28;20481;-55
2022/07/21 05:13:58;;;;;;;17.67;11.60;;;23.40;1.00;;;;;;5080033;28;20749;-55
2022/07/21 05:16:24;;;;;;;18.20;12.30;;;23.70;99.90;;;;;;5078188;28;20384;-56
2022/07/21 05:18:49;;;;;;;18.20;12.00;;;23.80;99.90;;;;;;5078786;28;20944;-55
2022/07/21 05:21:15;;;;;;;19.27;12.20;;;24.00;99.90;;;;;;5081170;28;20378;-55
2022/07/21 05:23:41;;;;;;;18.00;12.33;;;24.40;99.90;;;;;;5079811;28;20387;-55
2022/07/21 05:26:06;;;;;;;18.17;11.57;;;24.90;1.00;;;;;;5080482;28;20437;-55
2022/07/21 05:28:32;;;;;;;19.90;11.80;;;25.10;1.00;;;;;;5082057;28;20436;-55
2022/07/21 05:30:58;;;;;;;16.10;11.10;;;25.40;99.90;;;;;;5082208;28;20431;-54
2022/07/21 05:33:23;;;;;;;16.80;11.00;;;25.00;33.40;;;;;;5079609;28;20400;-60
2022/07/21 05:35:49;;;;;;;17.70;11.90;;;24.50;1.00;;;;;;5079415;28;20390;-56
2022/07/21 05:38:15;;;;;;;19.33;12.50;;;24.40;99.90;;;;;;5079787;28;20391;-55
2022/07/21 05:40:40;;;;;;;15.88;11.30;;;24.80;99.90;;;;;;5078301;28;20378;-55
2022/07/21 05:43:06;;;;;;;16.73;11.35;;;25.50;99.90;;;;;;5081900;28;20863;-52
2022/07/21 05:45:32;;;;;;;17.15;11.48;;;26.20;99.90;;;;;;5077746;28;20423;-53
2022/07/21 05:47:57;;;;;;;19.52;10.90;;;26.80;1.00;;;;;;5078644;28;20508;-54
2022/07/21 05:50:23;;;;;;;16.45;11.23;;;26.90;99.90;;;;;;5078241;28;20445;-58
2022/07/21 05:52:49;;;;;;;17.05;11.45;;;27.10;99.90;;;;;;5079747;28;20730;-52
2022/07/21 05:55:15;;;;;;;18.95;12.20;;;27.10;99.90;;;;;;5078617;28;20702;-54
2022/07/21 05:57:41;;;;;;;18.85;11.15;;;27.10;99.90;;;;;;5080287;28;21058;-54
2022/07/21 06:00:08;;;;;;;16.65;10.95;;;27.60;1.00;;;;;;5078507;28;20483;-55
2022/07/21 06:02:34;;;;;;;20.20;11.65;;;28.10;1.00;;;;;;5077366;28;20391;-54
2022/07/21 06:05:00;;;;;;;16.95;11.77;;;27.70;1.00;;;;;;5078471;28;20390;-53
2022/07/21 06:07:26;;;;;;;17.15;10.85;;;27.20;1.00;;;;;;5079437;28;20407;-54
2022/07/21 06:09:52;;;;;;;17.90;11.77;;;27.00;1.00;;;;;;5077207;28;20406;-53
2022/07/21 06:12:18;;;;;;;16.63;10.80;;;27.30;1.00;;;;;;5087843;28;20392;-54
2022/07/21 06:14:43;;;;;;;18.17;12.25;;;27.40;1.00;;;;;;5074293;28;20407;-53
2022/07/21 06:17:09;;;;;;;16.50;11.80;;;28.20;1.00;;;;;;5076813;28;20406;-53
2022/07/21 06:19:35;;;;;;;15.55;11.57;;;27.60;1.00;;;;;;5073248;28;20399;-54
2022/07/21 06:22:02;;;;;;;14.88;10.40;;;27.40;1.00;;;;;;5082144;28;20489;-55
2022/07/21 06:24:28;;;;;;;18.23;11.98;;;27.40;1.00;;;;;;5072721;28;20881;-54
2022/07/21 06:26:57;;;;;;;16.90;11.53;;;27.60;1.00;;;;;;5083524;28;20432;-53
2022/07/21 06:29:23;;;;;;;17.60;11.20;;;26.70;1.00;;;;;;5075614;28;20416;-58
2022/07/21 06:31:49;;;;;;;17.38;11.30;;;27.10;1.00;;;;;;5073485;28;20406;-54
2022/07/21 06:34:15;;;;;;;16.37;10.90;;;28.40;1.00;;;;;;5078240;28;20492;-53
2022/07/21 06:36:41;;;;;;;15.07;10.90;;;29.30;1.00;;;;;;5079331;28;20935;-55
2022/07/21 06:39:06;;;;;;;17.40;11.33;;;30.00;1.00;;;;;;5076837;28;20400;-54
2022/07/21 06:41:32;;;;;;;15.67;10.53;;;30.20;99.90;;;;;;5078204;28;20402;-54
2022/07/21 06:43:58;;;;;;;18.02;10.82;;;29.50;99.90;;;;;;5080775;28;20416;-53
2022/07/21 06:46:24;;;;;;;14.30;10.33;;;28.60;99.90;;;;;;5076046;28;20828;-58
2022/07/21 06:48:49;;;;;;;14.83;10.20;;;28.40;99.90;;;;;;5087121;28;20462;-53
2022/07/21 06:51:15;;;;;;;15.00;10.10;;;28.70;99.90;;;;;;5078744;28;20407;-54
2022/07/21 06:53:42;;;;;;;15.50;10.03;;;29.70;99.90;;;;;;5068386;28;20460;-54
2022/07/21 06:56:08;;;;;;;13.60;10.00;;;31.20;99.90;;;;;;5083046;28;20386;-54
2022/07/21 06:58:34;;;;;;;14.15;10.25;;;31.50;99.90;;;;;;5086732;28;20406;-53
2022/07/21 07:00:59;;;;;;;16.80;10.80;;;31.70;99.90;;;;;;5079435;28;20391;-53
2022/07/21 07:03:26;;;;;;;14.63;9.88;;;32.80;99.90;;;;;;5081245;28;20747;-57
2022/07/21 07:05:52;;;;;;;13.82;10.05;;;32.60;99.90;;;;;;5087163;28;20403;-54
2022/07/21 07:08:17;;;;;;;14.13;11.17;;;34.30;99.90;;;;;;5088679;28;20403;-55
2022/07/21 07:10:45;;;;;;;13.43;10.88;;;34.70;99.90;;;;;;5077880;28;20614;-54
2022/07/21 07:13:13;;;;;;;13.35;10.50;;;34.20;99.90;;;;;;5084254;28;20721;-54
2022/07/21 07:15:39;;;;;;;14.77;11.80;;;35.40;99.90;;;;;;5088527;28;20433;-59
2022/07/21 07:18:04;;;;;;;14.53;11.80;;;35.80;99.90;;;;;;5086145;28;20436;-57
2022/07/21 07:20:30;;;;;;;13.13;11.63;;;36.10;99.90;;;;;;5081472;28;20376;-56
2022/07/21 07:22:56;;;;;;;14.45;11.38;;;34.10;99.90;;;;;;5081150;28;20390;-55
2022/07/21 07:25:22;;;;;;;13.97;9.43;;;32.00;99.90;;;;;;5078700;28;20382;-62
2022/07/21 07:27:49;;;;;;;12.70;9.60;;;30.20;99.90;;;;;;5086782;28;20414;-54
2022/07/21 07:30:17;;;;;;;13.43;10.32;;;30.00;99.90;;;;;;5086606;28;20461;-55
2022/07/21 07:32:43;;;;;;;14.70;9.30;;;29.80;99.90;;;;;;5072598;28;20805;-54
2022/07/21 07:35:10;;;;;;;15.45;10.80;;;29.10;99.90;;;;;;5072370;28;20932;-54
2022/07/21 07:37:40;;;;;;;16.50;10.13;;;28.50;99.90;;;;;;5071217;28;20375;-54
2022/07/21 07:40:09;;;;;;;13.40;9.30;;;28.00;99.90;;;;;;5072384;28;20380;-54
2022/07/21 07:42:36;;;;;;;13.45;8.88;;;27.30;99.90;;;;;;5090258;28;20389;-54
2022/07/21 07:45:04;;;;;;;17.98;9.80;;;27.00;99.90;;;;;;5088952;28;20435;-54
2022/07/21 07:47:30;;;;;;;13.07;9.20;;;27.00;99.90;;;;;;5087361;28;20488;-54
2022/07/21 07:49:55;;;;;;;14.25;8.40;;;27.20;99.90;;;;;;5082286;28;20812;-55
2022/07/21 07:52:21;;;;;;;13.80;8.60;;;27.50;99.90;;;;;;5071784;28;20372;-54
2022/07/21 07:54:47;;;;;;;13.98;8.30;;;27.90;99.90;;;;;;5071352;28;20398;-54
2022/07/21 07:57:13;;;;;;;12.27;8.00;;;28.00;99.90;;;;;;5086908;28;20755;-54
2022/07/21 07:59:38;;;;;;;12.50;8.20;;;28.70;99.90;;;;;;5091508;28;20492;-53
2022/07/21 08:02:04;;;;;;;12.30;7.73;;;29.50;99.90;;;;;;5092221;28;20429;-54
2022/07/21 08:04:30;;;;;;;12.82;7.60;;;30.20;99.90;;;;;;5084384;28;20383;-54
2022/07/21 08:06:56;;;;;;;13.47;7.93;;;29.40;99.90;;;;;;5089636;28;20781;-54
2022/07/21 08:09:21;;;;;;;14.23;8.40;;;29.00;99.90;;;;;;5092279;28;20439;-53
2022/07/21 08:11:48;;;;;;;14.57;7.97;;;29.90;99.90;;;;;;5091274;28;20448;-54
2022/07/21 08:14:14;;;;;;;11.13;8.07;;;31.40;99.90;;;;;;5084553;28;20919;-54
2022/07/21 08:16:40;;;;;;;11.10;7.43;;;32.50;99.90;;;;;;5088187;28;20464;-53
2022/07/21 08:19:06;;;;;;;10.67;7.67;;;33.00;99.90;;;;;;5090887;28;20468;-55
2022/07/21 08:21:33;;;;;;;14.20;8.20;;;33.30;99.90;;;;;;5086007;28;20707;-54
2022/07/21 08:24:01;;;;;;;12.35;7.75;;;32.90;99.90;;;;;;5090431;28;20910;-54
2022/07/21 08:26:26;;;;;;;13.55;7.75;;;31.70;99.90;;;;;;5086831;28;20471;-61
2022/07/21 08:28:53;;;;;;;11.50;7.50;;;30.90;99.90;;;;;;5088607;28;20386;-54
2022/07/21 08:31:19;;;;;;;11.07;7.35;;;31.10;99.90;;;;;;5086132;28;20487;-54
2022/07/21 08:33:45;;;;;;;10.80;7.00;;;31.70;99.90;;;;;;5087627;28;20461;-53
2022/07/21 08:36:11;;;;;;;12.20;7.67;;;31.70;99.90;;;;;;5071404;28;20715;-53
2022/07/21 08:38:36;;;;;;;12.00;8.50;;;30.90;99.90;;;;;;5085541;28;20857;-54
2022/07/21 08:41:02;;;;;;;10.27;7.23;;;30.20;99.90;;;;;;5087646;28;20413;-54
2022/07/21 08:43:29;;;;;;;11.87;7.80;;;29.60;99.90;;;;;;5089731;28;20472;-54
2022/07/21 08:45:55;;;;;;;11.52;7.85;;;28.90;99.90;;;;;;5089936;28;20401;-59
2022/07/21 08:48:25;;;;;;;11.85;7.72;;;28.70;99.90;;;;;;5089875;28;20386;-54
2022/07/21 08:50:51;;;;;;;11.38;7.30;;;30.10;99.90;;;;;;5078552;28;20388;-55
2022/07/21 08:53:16;;;;;;;12.82;8.43;;;30.80;99.90;;;;;;5086654;28;20385;-53
2022/07/21 08:55:42;;;;;;;11.90;7.93;;;30.60;99.90;;;;;;5088513;28;20684;-54
2022/07/21 08:58:09;;;;;;;12.27;7.80;;;31.10;99.90;;;;;;5082899;28;20874;-54
2022/07/21 09:00:35;;;;;;;11.48;7.40;;;32.90;99.90;;;;;;5087604;28;20818;-54
2022/07/21 09:03:09;;;;;;;11.37;7.97;;;34.50;1.00;;;;;;5086825;28;20400;-54
2022/07/21 09:05:35;;;;;;;12.43;9.32;;;36.30;99.90;;;;;;5087534;28;20882;-54
2022/07/21 09:08:01;;;;;;;10.95;7.03;;;36.70;99.90;;;;;;5090123;28;20468;-59
2022/07/21 09:10:29;;;;;;;10.25;7.32;;;36.80;99.90;;;;;;5087075;28;20390;-61
2022/07/21 09:13:04;;;;;;;11.47;8.00;;;36.00;99.90;;;;;;5082215;28;20398;-54
2022/07/21 09:15:32;;;;;;;11.30;8.15;;;35.70;99.90;;;;;;5076279;28;20404;-55
2022/07/21 09:18:14;;;;;;;10.52;8.00;;;34.50;99.90;;;;;;5090481;28;20797;-54
2022/07/21 09:20:51;;;;;;;10.80;7.93;;;34.60;99.90;;;;;;5077097;28;20473;-54
2022/07/21 09:23:20;;;;;;;9.83;6.80;;;35.00;99.90;;;;;;5076386;28;20396;-54
2022/07/21 09:25:48;;;;;;;10.10;7.83;;;34.70;99.90;;;;;;5068920;28;20396;-54
2022/07/21 09:28:25;;;;;;;10.10;6.40;;;34.30;99.90;;;;;;5069474;28;20907;-55
2022/07/21 09:31:06;;;;;;;10.30;7.03;;;35.40;99.90;;;;;;5082882;28;20483;-54
2022/07/21 09:33:37;;;;;;;13.20;7.20;;;35.30;99.90;;;;;;5089603;28;20393;-55
2022/07/21 09:36:10;;;;;;;12.40;6.60;;;36.80;99.90;;;;;;5088954;28;20681;-55
2022/07/21 09:38:50;;;;;;;10.17;6.60;;;37.90;99.90;;;;;;5089449;28;20378;-54
2022/07/21 09:41:19;;;;;;;11.90;6.57;;;37.60;99.90;;;;;;5090274;28;20389;-54
2022/07/21 09:43:47;;;;;;;10.93;6.55;;;35.20;99.90;;;;;;5089121;28;20583;-54
2022/07/21 09:46:18;;;;;;;11.10;6.57;;;34.40;99.90;;;;;;5090373;28;20410;-54
2022/07/21 09:48:46;;;;;;;11.27;6.20;;;34.90;99.90;;;;;;5089225;28;20383;-54
2022/07/21 09:51:28;;;;;;;13.60;7.80;;;35.00;99.90;;;;;;5090123;28;20382;-54
2022/07/21 09:54:03;;;;;;;11.53;8.50;;;33.50;99.90;;;;;;5090010;28;20386;-54
2022/07/21 09:56:37;;;;;;;14.65;9.90;;;31.80;99.90;;;;;;5086883;28;20490;-56
2022/07/21 09:59:06;;;;;;;12.38;8.90;;;30.90;99.90;;;;;;5087587;28;20387;-54
2022/07/21 10:01:32;;;;;;;13.57;10.07;;;29.80;99.90;;;;;;5087679;28;20716;-53
2022/07/21 10:03:59;;;;;;;14.82;8.18;;;29.30;99.90;;;;;;5089139;28;20370;-54
2022/07/21 10:06:30;;;;;;;11.40;8.30;;;28.90;99.90;;;;;;5083254;28;20503;-58
2022/07/21 10:08:57;;;;;;;13.27;7.65;;;28.50;99.90;;;;;;5082122;28;20387;-54
2022/07/21 10:11:25;;;;;;;11.95;8.30;;;28.30;99.90;;;;;;5069587;28;20376;-53
2022/07/21 10:13:51;;;;;;;14.10;8.15;;;28.00;99.90;;;;;;5068989;28;20525;-53
2022/07/21 10:16:16;;;;;;;13.32;6.90;;;27.90;99.90;;;;;;5069870;28;21233;-53
2022/07/21 10:18:58;;;;;;;11.80;7.30;;;28.70;99.90;;;;;;5068698;28;20384;-53
2022/07/21 10:21:49;;;;;;;11.95;7.75;;;30.70;99.90;;;;;;5069669;28;20395;-53
2022/07/21 10:24:15;;;;;;;9.68;5.93;;;32.30;99.90;;;;;;5069416;28;20375;-54
2022/07/21 10:27:00;;;;;;;10.38;6.80;;;33.40;1.00;;;;;;5068206;28;20422;-54
2022/07/21 10:29:47;;;;;;;10.40;6.80;;;35.00;1.00;;;;;;5069230;28;20427;-58
2022/07/21 10:32:15;;;;;;;10.90;6.45;;;35.60;1.00;;;;;;5073338;28;20376;-55
2022/07/21 10:34:40;;;;;;;10.52;7.03;;;34.90;1.00;;;;;;5072854;28;20436;-54
2022/07/21 10:37:06;;;;;;;12.60;7.70;;;34.40;1.00;;;;;;5073420;28;20415;-54
2022/07/21 10:39:33;;;;;;;11.73;6.73;;;34.60;1.00;;;;;;5072816;28;20394;-53
2022/07/21 10:42:01;;;;;;;10.63;7.95;;;34.80;1.00;;;;;;5073197;28;20829;-54
2022/07/21 10:44:27;;;;;;;10.50;6.35;;;33.90;1.00;;;;;;5073064;28;20458;-57
2022/07/21 10:46:59;;;;;;;11.63;7.13;;;32.90;1.00;;;;;;5073237;28;20407;-54
2022/07/21 10:49:41;;;;;;;9.13;6.32;;;31.80;1.00;;;;;;5073154;28;20864;-53
2022/07/21 10:52:39;;;;;;;9.90;6.70;;;30.80;1.00;;;;;;5073425;28;20375;-53
2022/07/21 10:55:10;;;;;;;11.17;6.87;;;30.30;1.00;;;;;;5072967;28;20452;-54
2022/07/21 10:57:39;;;;;;;9.70;6.33;;;29.90;1.00;;;;;;5072046;28;20415;-53
2022/07/21 11:00:23;;;;;;;10.80;7.70;;;29.50;1.00;;;;;;5073021;28;20441;-53
2022/07/21 11:03:00;;;;;;;11.10;6.77;;;29.10;1.00;;;;;;5072281;28;21002;-53
2022/07/21 11:05:28;;;;;;;9.65;6.97;;;28.90;1.00;;;;;;5072449;28;20439;-56
2022/07/21 11:08:22;;;;;;;9.27;6.03;;;28.90;1.00;;;;;;5072820;28;20474;-52
2022/07/21 11:10:51;;;;;;;10.70;6.63;;;29.20;1.00;;;;;;5071878;28;20380;-53
2022/07/21 11:13:20;;;;;;;9.43;5.80;;;29.60;99.90;;;;;;5075653;28;20385;-53
2022/07/21 11:15:56;;;;;;;12.00;5.65;;;29.80;1.00;;;;;;5092380;28;20389;-53
2022/07/21 11:18:25;;;;;;;10.00;6.30;;;30.00;1.00;;;;;;5093211;28;20882;-53
2022/07/21 11:21:15;;;;;;;9.75;6.82;;;30.00;1.00;;;;;;5092274;28;20373;-53
2022/07/21 11:23:50;;;;;;;10.15;6.20;;;30.30;1.00;;;;;;5092168;28;20388;-54
2022/07/21 11:26:22;;;;;;;10.23;6.90;;;29.80;1.00;;;;;;5092510;28;20796;-53
2022/07/21 11:29:06;;;;;;;10.52;6.97;;;29.60;1.00;;;;;;5091850;28;20415;-53
2022/07/21 11:31:44;;;;;;;11.15;7.15;;;30.00;1.00;;;;;;5081772;28;20852;-53
2022/07/21 11:34:10;;;;;;;9.73;6.38;;;30.60;1.00;;;;;;5088491;28;20403;-53
2022/07/21 11:36:35;;;;;;;10.60;7.00;;;30.60;1.00;;;;;;5090643;28;20469;-53
2022/07/21 11:39:13;;;;;;;10.17;7.30;;;30.00;1.00;;;;;;5092555;28;20393;-53
2022/07/21 11:41:43;;;;;;;11.02;7.60;;;29.90;1.00;;;;;;5074363;28;20500;-55
2022/07/21 11:44:10;;;;;;;11.60;8.32;;;29.80;1.00;;;;;;5087153;28;20407;-53
2022/07/21 11:46:46;;;;;;;10.90;7.20;;;29.70;1.00;;;;;;5078961;28;20401;-53
2022/07/21 11:49:11;;;;;;;12.50;7.60;;;29.70;1.00;;;;;;5090702;28;20743;-53
2022/07/21 11:51:37;;;;;;;11.40;7.50;;;30.00;1.00;;;;;;5075210;28;20376;-53
2022/07/21 11:54:03;;;;;;;11.10;7.53;;;30.60;1.00;;;;;;5075045;28;20392;-53
2022/07/21 11:56:37;;;;;;;10.07;7.10;;;30.30;1.00;;;;;;5085225;28;20936;-59
2022/07/21 11:59:11;;;;;;;12.75;8.60;;;30.30;1.00;;;;;;5082911;28;20495;-53
2022/07/21 12:02:02;;;;;;;12.45;8.10;;;30.20;1.00;;;;;;5075438;28;20388;-53
2022/07/21 12:04:35;;;;;;;11.57;7.67;;;30.20;1.00;;;;;;5076033;28;20394;-59
2022/07/21 12:07:03;;;;;;;11.20;7.63;;;29.70;1.00;;;;;;5080187;28;20406;-53
2022/07/21 12:09:29;;;;;;;10.98;7.65;;;29.20;1.00;;;;;;5076459;28;20873;-59
2022/07/21 12:11:54;;;;;;;12.00;7.20;;;29.00;1.00;;;;;;5088141;28;20494;-53
2022/07/21 12:14:22;;;;;;;14.30;8.30;;;29.10;1.00;;;;;;5087852;28;20528;-53
2022/07/21 12:16:53;;;;;;;15.00;8.75;;;28.80;1.00;;;;;;5090664;28;20385;-53
2022/07/21 12:19:20;;;;;;;11.57;7.90;;;29.10;1.00;;;;;;5091727;28;20458;-54
2022/07/21 12:21:52;;;;;;;11.50;8.60;;;29.30;1.00;;;;;;5091056;28;20797;-55
2022/07/21 12:24:19;;;;;;;11.65;7.35;;;29.10;1.00;;;;;;5091687;28;20500;-53
2022/07/21 12:26:46;;;;;;;12.95;8.13;;;28.80;1.00;;;;;;5090468;28;20418;-53
2022/07/21 12:29:29;;;;;;;10.25;7.50;;;28.90;1.00;;;;;;5090653;28;20450;-53
2022/07/21 12:31:55;;;;;;;13.20;8.30;;;29.30;1.00;;;;;;5091868;28;20382;-53
2022/07/21 12:34:24;;;;;;;12.07;8.20;;;29.10;1.00;;;;;;5078449;28;20782;-57
2022/07/21 12:36:50;;;;;;;12.25;8.02;;;29.00;1.00;;;;;;5074147;28;20409;-55
2022/07/21 12:42:30;;;;;;;12.75;9.15;;;29.60;1.00;;;;;;5080366;28;20409;-53